Sao Paulo, Brazil
Current Conditions -  °F | °C
As of 1:00 PM on Monday 22 Dec 2014 (Local Time) from SBMT Reporting Station
Broken Clouds Broken Clouds  
Wind Chill: 81°   Ceiling: 3500
Heat Index: 83°   Visibility: 6mi
Dew Point: 66°   Wind: 5mph
Humidity: 61%   Direction: 340°NNW
Pressure: 29.97"   Gusts: NA
Location:  23.53°S, 46.63°W
Report Text: SBMT 221500Z 34004KT 9999 BKN035 BKN100 27/19 Q1015
Loading
Personal Weather Stations






























Interactive Weather Map New forecast layout! Learn more

10-Day Weather Forecast

Advertisements
Track Severe Weather on mobile